Time;durP1;ratioP1;P1;durP2;ratioP2;P2;SDS_P1;SDS_P2;PMS_P1;PMS_P2;Temp;Humidity;BMP_temperature;BMP_pressure;BME280_temperature;BME280_humidity;BME280_pressure;Samples;Min_cycle;Max_cycle;Signal;HPM_P1;HPM_P2
2023/02/10 00:13:51;;;;;;;4.75;2.83;;;;;;;16.66;47.26;103548.94;6266117;21;1979571;-87
2023/02/10 00:18:51;;;;;;;5.10;3.22;;;;;;;16.67;46.99;103559.38;6260883;22;20035;-85
2023/02/10 00:21:17;;;;;;;5.10;2.97;;;;;;;16.66;47.07;103556.72;6256451;22;20018;-86
2023/02/10 00:28:52;;;;;;;5.07;3.22;;;;;;;16.66;47.01;103554.13;6322465;22;20056;-85
2023/02/10 00:31:19;;;;;;;4.95;2.90;;;;;;;16.64;46.98;103559.28;6317250;22;20003;-85
2023/02/10 00:41:29;;;;;;;4.80;3.03;;;;;;;16.64;47.02;103568.78;6222594;22;20007;-82
2023/02/10 00:46:30;;;;;;;4.80;2.67;;;;;;;16.63;46.91;103564.41;6274046;22;20019;-88
2023/02/10 00:48:59;;;;;;;4.82;2.83;;;;;;;16.58;46.95;103561.63;6287108;22;19988;-88
2023/02/10 00:54:00;;;;;;;5.38;2.97;;;;;;;16.62;46.83;103570.44;6248367;22;20008;-86
2023/02/10 00:56:25;;;;;;;4.97;2.60;;;;;;;16.59;46.75;103570.31;6261208;22;20016;-84
2023/02/10 00:58:51;;;;;;;4.30;2.70;;;;;;;16.60;46.88;103580.78;6253535;22;20004;-87
2023/02/10 01:01:16;;;;;;;5.13;2.35;;;;;;;16.60;47.02;103579.91;6261901;22;19987;-85
2023/02/10 01:14:03;;;;;;;4.93;2.65;;;;;;;16.59;46.68;103570.31;6228389;22;20058;-81
2023/02/10 01:16:29;;;;;;;3.90;2.30;;;;;;;16.58;46.76;103572.03;6228173;22;20007;-81
2023/02/10 01:18:55;;;;;;;5.75;2.72;;;;;;;16.58;46.70;103578.94;6228099;22;20023;-81
2023/02/10 01:21:20;;;;;;;4.38;2.38;;;;;;;16.58;46.41;103591.94;6227861;22;20082;-81
2023/02/10 01:23:47;;;;;;;3.80;2.33;;;;;;;16.58;46.87;103592.81;6229063;22;20007;-82
2023/02/10 01:26:13;;;;;;;4.43;2.55;;;;;;;16.59;46.75;103604.09;6232896;22;20309;-82
2023/02/10 01:28:40;;;;;;;3.90;2.20;;;;;;;16.59;46.63;103594.63;6253133;22;20000;-81
2023/02/10 01:31:18;;;;;;;4.47;2.15;;;;;;;16.54;46.70;103593.53;6280713;22;20049;-81
2023/02/10 01:33:45;;;;;;;4.53;2.30;;;;;;;16.53;46.87;103596.97;6253305;22;20440;-81
2023/02/10 01:36:14;;;;;;;4.15;2.00;;;;;;;16.55;47.08;103594.41;6254181;22;20018;-81
2023/02/10 01:38:40;;;;;;;3.53;2.40;;;;;;;16.55;46.47;103599.59;6279035;22;20436;-82
2023/02/10 01:41:06;;;;;;;4.68;2.30;;;;;;;16.56;46.77;103591.88;6308114;22;20030;-81
2023/02/10 01:43:32;;;;;;;4.78;2.22;;;;;;;16.56;46.69;103591.88;6258362;22;20003;-81
2023/02/10 01:45:57;;;;;;;3.53;2.20;;;;;;;16.53;46.68;103596.97;6285830;22;20003;-82
2023/02/10 01:48:24;;;;;;;4.55;2.20;;;;;;;16.53;46.56;103591.78;6260528;22;20446;-82
2023/02/10 01:51:03;;;;;;;3.10;2.15;;;;;;;16.55;46.42;103600.53;6284539;22;20074;-81
2023/02/10 01:53:30;;;;;;;4.72;2.15;;;;;;;16.53;46.70;103599.56;6311073;22;20442;-81
2023/02/10 01:55:58;;;;;;;3.70;2.03;;;;;;;16.53;46.63;103593.50;6284817;22;20007;-81
2023/02/10 01:58:26;;;;;;;3.33;2.30;;;;;;;16.53;46.87;103586.56;6283962;22;20003;-81
2023/02/10 02:00:52;;;;;;;3.63;2.15;;;;;;;16.52;46.65;103581.31;6285721;22;20033;-82
2023/02/10 02:03:17;;;;;;;3.95;2.10;;;;;;;16.53;46.55;103578.78;6285488;22;20007;-82
2023/02/10 02:05:44;;;;;;;3.10;1.80;;;;;;;16.55;46.63;103587.53;6284315;22;20007;-82
2023/02/10 02:08:21;;;;;;;3.17;1.77;;;;;;;16.56;46.49;103593.59;6258317;22;20003;-81
2023/02/10 02:11:11;;;;;;;2.42;1.58;;;;;;;16.58;46.44;103600.63;6287073;22;20026;-82
2023/02/10 02:13:36;;;;;;;4.15;1.98;;;;;;;16.59;46.68;103592.03;6286932;22;20052;-82
2023/02/10 02:16:11;;;;;;;5.10;2.22;;;;;;;16.60;46.77;103588.56;6287188;22;20011;-83
2023/02/10 02:18:55;;;;;;;3.72;2.00;;;;;;;16.60;46.61;103582.50;6314162;22;20010;-82
2023/02/10 02:21:38;;;;;;;4.32;1.83;;;;;;;16.60;46.55;103579.91;6286466;22;20007;-82
2023/02/10 02:24:27;;;;;;;3.23;1.80;;;;;;;16.60;46.61;103585.97;6294837;22;20007;-83
2023/02/10 02:27:14;;;;;;;4.20;1.98;;;;;;;16.60;46.30;103591.19;6304425;22;20003;-82
2023/02/10 02:30:07;;;;;;;2.75;1.67;;;;;;;16.61;46.69;103597.25;6300643;22;19999;-82
2023/02/10 02:32:38;;;;;;;4.78;1.75;;;;;;;16.61;46.61;103605.06;6317617;22;20030;-82
2023/02/10 02:35:11;;;;;;;2.70;1.50;;;;;;;16.61;46.77;103608.56;6288503;22;20006;-82
2023/02/10 02:37:42;;;;;;;3.60;1.65;;;;;;;16.60;46.78;103613.69;6292506;22;19995;-83
2023/02/10 02:40:09;;;;;;;2.70;1.40;;;;;;;16.61;46.88;103603.38;6291818;22;20007;-82
2023/02/10 02:42:34;;;;;;;3.05;1.60;;;;;;;16.61;46.84;103608.56;6260381;22;20007;-81
2023/02/10 02:45:04;;;;;;;3.10;1.73;;;;;;;16.61;46.55;103602.44;6258979;22;20037;-82
2023/02/10 02:47:54;;;;;;;2.80;1.50;;;;;;;16.62;46.88;103612.91;6284242;22;20041;-82
2023/02/10 02:50:41;;;;;;;3.88;1.73;;;;;;;16.63;46.85;103606.00;6284674;22;19999;-81
2023/02/10 02:53:18;;;;;;;2.88;1.50;;;;;;;16.62;46.62;103615.53;6286122;22;20010;-82
2023/02/10 02:56:02;;;;;;;3.30;1.52;;;;;;;16.63;46.69;103604.28;6286010;22;20038;-82
2023/02/10 02:58:34;;;;;;;;;;;;;;;16.63;46.67;103606.88;6285803;22;20007;-82
2023/02/10 03:01:05;;;;;;;2.45;1.33;;;;;;;16.64;46.42;103600.00;6283560;22;19925;-82
2023/02/10 03:03:35;;;;;;;2.90;1.38;;;;;;;16.63;46.84;103599.06;6291108;22;20327;-81
2023/02/10 03:06:15;;;;;;;2.17;1.30;;;;;;;16.62;46.84;103607.72;6289233;22;19991;-88
2023/02/10 03:15:15;;;;;;;3.50;1.45;;;;;;;16.64;46.80;103610.38;6232676;22;20050;-81
2023/02/10 03:17:40;;;;;;;2.67;1.33;;;;;;;16.63;46.55;103614.69;6257151;22;20015;-81
2023/02/10 03:20:07;;;;;;;2.95;1.45;;;;;;;16.65;46.60;103614.75;6257530;22;20014;-81
2023/02/10 03:22:32;;;;;;;2.80;1.50;;;;;;;16.64;46.86;103611.28;6282747;22;20003;-81
2023/02/10 03:24:58;;;;;;;2.03;1.23;;;;;;;16.64;46.85;103611.28;6233111;22;20427;-81
2023/02/10 03:27:23;;;;;;;2.22;1.40;;;;;;;16.64;46.93;103605.19;6232704;22;20027;-81
2023/02/10 03:29:49;;;;;;;2.33;1.20;;;;;;;16.63;46.91;103612.06;6257872;22;20003;-81
2023/02/10 03:32:16;;;;;;;2.17;1.33;;;;;;;16.64;46.84;103621.66;6233436;22;19999;-81
2023/02/10 03:34:42;;;;;;;2.70;1.30;;;;;;;16.63;46.84;103613.81;6258365;22;20034;-81
2023/02/10 03:37:08;;;;;;;2.15;1.20;;;;;;;16.64;46.86;103615.59;6310794;22;20415;-82
2023/02/10 03:39:33;;;;;;;2.67;1.45;;;;;;;16.64;46.85;103618.19;6283512;22;20442;-81
2023/02/10 03:41:59;;;;;;;2.15;1.10;;;;;;;16.61;46.62;103618.97;6232926;22;20086;-81
2023/02/10 03:44:24;;;;;;;2.25;1.35;;;;;;;16.63;46.80;103619.00;6258774;22;20189;-81
2023/02/10 03:46:50;;;;;;;2.22;1.10;;;;;;;16.64;46.76;103613.00;6232854;22;20035;-81
2023/02/10 03:49:15;;;;;;;2.38;1.20;;;;;;;16.63;46.77;103613.81;6261654;22;20052;-82
2023/02/10 03:51:40;;;;;;;1.92;1.10;;;;;;;16.64;46.83;103616.47;6283526;22;19992;-81
2023/02/10 03:54:06;;;;;;;2.05;1.10;;;;;;;16.63;46.84;103619.00;6258080;22;20038;-82
2023/02/10 03:56:31;;;;;;;3.33;1.45;;;;;;;16.64;46.76;103624.28;6285292;22;20031;-82
2023/02/10 03:59:00;;;;;;;2.15;1.30;;;;;;;16.64;46.82;103621.66;6233303;22;20435;-81
2023/02/10 04:01:26;;;;;;;3.55;1.20;;;;;;;16.63;46.92;103622.47;6283251;22;19995;-82
2023/02/10 04:03:51;;;;;;;2.05;1.20;;;;;;;16.63;46.88;103619.00;6258003;22;20060;-80
2023/02/10 04:06:16;;;;;;;1.98;1.02;;;;;;;16.64;46.83;103621.66;6259012;22;20070;-82
2023/02/10 04:08:42;;;;;;;2.90;1.10;;;;;;;16.65;46.73;103617.34;6284738;22;19999;-81
2023/02/10 04:11:09;;;;;;;2.20;1.17;;;;;;;16.63;46.85;103611.19;6259819;22;20030;-82
2023/02/10 04:13:35;;;;;;;1.95;1.00;;;;;;;16.65;46.92;103609.53;6241652;22;20373;-81
2023/02/10 04:16:16;;;;;;;2.33;1.48;;;;;;;16.63;46.69;103609.47;6296138;22;20064;-82
2023/02/10 04:18:42;;;;;;;1.48;0.90;;;;;;;16.63;47.07;103606.00;6291182;22;20106;-82
2023/02/10 04:21:10;;;;;;;2.05;0.95;;;;;;;16.65;46.93;103606.94;6289169;22;20003;-81
2023/02/10 04:23:36;;;;;;;2.72;1.15;;;;;;;16.64;46.93;103607.78;6258232;22;20038;-82
2023/02/10 04:26:02;;;;;;;2.20;1.17;;;;;;;16.62;47.05;103615.53;6285306;22;20014;-82
2023/02/10 04:28:27;;;;;;;2.35;1.10;;;;;;;16.63;46.98;103617.28;6283884;22;20003;-81
2023/02/10 04:30:57;;;;;;;1.75;0.82;;;;;;;16.62;46.96;103605.13;6284002;22;20010;-82
2023/02/10 04:33:24;;;;;;;2.10;1.08;;;;;;;16.62;47.02;103609.44;6258219;22;20021;-81
2023/02/10 04:35:51;;;;;;;2.22;1.23;;;;;;;16.61;47.31;103600.75;6283585;22;20003;-82
2023/02/10 04:38:17;;;;;;;2.15;1.13;;;;;;;16.60;47.21;103617.19;6258787;22;20034;-82
2023/02/10 04:40:43;;;;;;;2.30;1.10;;;;;;;16.60;47.35;103618.91;6286645;22;20427;-82
2023/02/10 04:43:09;;;;;;;2.25;1.20;;;;;;;16.59;47.03;103620.63;6261774;22;20008;-82
2023/02/10 04:45:35;;;;;;;2.13;1.20;;;;;;;16.59;47.06;103625.81;6237306;22;20012;-82
2023/02/10 04:48:01;;;;;;;2.03;1.00;;;;;;;16.59;47.09;103625.81;6237842;22;20335;-82
2023/02/10 04:50:26;;;;;;;2.13;1.00;;;;;;;16.58;47.33;103621.41;6264698;22;20160;-83
2023/02/10 04:52:52;;;;;;;3.40;1.10;;;;;;;16.59;47.15;103617.09;6287131;22;20010;-82
2023/02/10 04:55:17;;;;;;;2.17;1.00;;;;;;;16.59;46.93;103610.22;6263130;22;20005;-82
2023/02/10 04:57:42;;;;;;;1.83;1.10;;;;;;;16.59;46.94;103599.81;6237486;22;20007;-82
2023/02/10 05:00:08;;;;;;;2.30;1.00;;;;;;;16.56;47.23;103597.06;6262018;22;20008;-82
2023/02/10 05:02:34;;;;;;;2.45;1.13;;;;;;;16.59;47.01;103597.22;6264077;22;20007;-83
2023/02/10 05:05:00;;;;;;;1.70;0.95;;;;;;;16.60;47.00;103600.69;6272452;22;20467;-82
2023/02/10 05:07:25;;;;;;;2.00;0.95;;;;;;;16.58;46.95;103605.81;6245613;22;20029;-82
2023/02/10 05:09:51;;;;;;;2.42;1.20;;;;;;;16.60;47.05;103601.56;6267640;22;20003;-82
2023/02/10 05:12:16;;;;;;;3.25;1.23;;;;;;;16.61;46.85;103605.06;6294579;22;20004;-81
2023/02/10 05:14:41;;;;;;;3.47;1.23;;;;;;;16.62;46.99;103601.63;6272627;22;20076;-82
2023/02/10 05:17:07;;;;;;;1.27;0.88;;;;;;;16.60;47.10;103591.19;6241666;22;20030;-81
2023/02/10 05:19:32;;;;;;;1.63;0.90;;;;;;;16.60;47.10;103596.38;6247278;22;20428;-81
2023/02/10 05:21:58;;;;;;;2.22;0.95;;;;;;;16.61;47.00;103592.06;6299730;22;20436;-82
2023/02/10 05:24:23;;;;;;;1.88;1.00;;;;;;;16.61;47.00;103600.75;6279024;22;19991;-84
2023/02/10 05:31:59;;;;;;;2.00;0.93;;;;;;;16.60;47.06;103585.09;6282114;22;20030;-85
2023/02/10 05:34:27;;;;;;;2.30;1.20;;;;;;;16.61;47.18;103590.38;6303284;22;20004;-85
2023/02/10 05:36:53;;;;;;;1.92;0.90;;;;;;;16.61;46.96;103589.44;6300605;22;20026;-85
2023/02/10 05:39:24;;;;;;;1.73;0.95;;;;;;;16.60;47.26;103592.91;6275885;22;19992;-85
2023/02/10 05:41:55;;;;;;;1.83;1.05;;;;;;;16.60;47.05;103595.50;6306527;22;20021;-84
2023/02/10 05:49:33;;;;;;;2.10;1.00;;;;;;;16.60;46.87;103601.56;6295946;22;20014;-83
2023/02/10 05:51:59;;;;;;;1.38;0.90;;;;;;;16.60;47.10;103601.56;6276808;22;20011;-85
2023/02/10 05:54:27;;;;;;;2.40;1.00;;;;;;;16.62;47.08;103604.25;6278221;22;20022;-85
2023/02/10 06:11:33;;;;;;;2.00;0.90;;;;;;;16.63;47.06;103613.81;6223489;22;20729;31
2023/02/10 06:14:04;;;;;;;2.15;0.90;;;;;;;16.65;47.22;103622.53;6192855;23;20027;-84
2023/02/10 06:16:30;;;;;;;1.70;0.90;;;;;;;16.64;47.10;103628.59;6203310;23;20010;-81
2023/02/10 06:18:56;;;;;;;2.45;0.90;;;;;;;16.65;47.07;103631.22;6250177;23;20015;-82
2023/02/10 06:21:41;;;;;;;1.95;0.80;;;;;;;16.67;47.01;103639.97;6246594;23;20434;-87
2023/02/10 06:24:06;;;;;;;1.60;0.90;;;;;;;16.67;47.15;103637.38;6229199;23;20015;-83
2023/02/10 06:26:32;;;;;;;2.50;1.02;;;;;;;16.65;47.28;103630.34;6221916;23;20008;-82
2023/02/10 06:28:57;;;;;;;2.47;1.00;;;;;;;16.67;47.25;103626.09;6195693;23;20090;-81
2023/02/10 06:31:25;;;;;;;1.67;0.85;;;;;;;16.66;47.23;103619.13;6209611;22;20019;-88
2023/02/10 06:36:28;;;;;;;2.05;1.08;;;;;;;16.67;47.34;103634.78;6269344;22;20856;-87
2023/02/10 06:38:54;;;;;;;2.65;1.02;;;;;;;16.65;47.48;103628.63;6246238;22;20012;-86
2023/02/10 06:41:19;;;;;;;3.30;1.23;;;;;;;16.66;47.57;103620.00;6272478;22;20029;-86
2023/02/10 06:43:45;;;;;;;3.35;1.05;;;;;;;16.65;47.55;103622.53;6264096;22;20393;-81
2023/02/10 06:49:01;;;;;;;3.15;1.20;;;;;;;16.66;47.26;103607.00;6285433;22;20031;-89
2023/02/10 06:51:26;;;;;;;4.75;1.20;;;;;;;16.70;47.88;103607.13;6326961;22;20081;-81
2023/02/10 06:53:58;;;;;;;7.80;2.65;;;;;;;16.71;47.61;103619.31;6290444;22;20007;-82
2023/02/10 06:58:59;;;;;;;8.20;2.45;;;;;;;16.63;47.73;103632.00;6239310;22;20030;-87
2023/02/10 07:01:25;;;;;;;6.88;2.80;;;;;;;16.63;47.57;103645.88;6295814;22;20034;-83
2023/02/10 07:03:53;;;;;;;8.85;2.70;;;;;;;16.63;47.73;103645.88;6296884;22;20015;-84
2023/02/10 07:06:18;;;;;;;6.85;2.40;;;;;;;16.61;47.52;103644.97;6299453;22;19999;-83
2023/02/10 07:08:44;;;;;;;8.15;2.50;;;;;;;16.62;47.60;103636.31;6268592;22;20011;-86
2023/02/10 07:11:10;;;;;;;7.40;2.50;;;;;;;16.59;47.73;103636.22;6323227;22;20059;-83
2023/02/10 07:13:35;;;;;;;6.10;2.70;;;;;;;16.61;47.71;103641.44;6270977;22;20026;-83
2023/02/10 07:16:01;;;;;;;6.90;2.45;;;;;;;16.61;47.42;103644.97;6245347;22;20003;-84
2023/02/10 07:18:27;;;;;;;5.43;2.20;;;;;;;16.61;47.61;103659.66;6271795;22;20003;-84
2023/02/10 07:20:53;;;;;;;5.15;2.28;;;;;;;16.63;47.43;103652.81;6247069;22;20003;-83
2023/02/10 07:23:18;;;;;;;5.80;2.28;;;;;;;16.63;47.35;103645.00;6272473;22;20014;-84
2023/02/10 07:25:44;;;;;;;6.72;2.30;;;;;;;16.62;47.48;103636.31;6247660;22;20011;-83
2023/02/10 07:28:09;;;;;;;4.85;2.10;;;;;;;16.64;47.19;103647.66;6296422;22;20393;-84
2023/02/10 07:30:38;;;;;;;7.00;2.10;;;;;;;16.64;47.24;103652.00;6295224;22;20049;-83
2023/02/10 07:33:03;;;;;;;4.82;2.05;;;;;;;16.64;47.34;103657.19;6275815;22;20046;-85
2023/02/10 07:35:29;;;;;;;5.50;2.20;;;;;;;16.66;47.29;103655.53;6254949;22;20030;-87
2023/02/10 07:37:54;;;;;;;7.15;2.17;;;;;;;16.66;47.32;103646.00;6280670;22;20030;-86
2023/02/10 07:40:21;;;;;;;4.60;2.00;;;;;;;16.67;47.00;103652.09;6306977;22;20011;-85
2023/02/10 07:42:46;;;;;;;3.38;1.80;;;;;;;16.69;47.12;103655.66;6304096;22;20019;-88
2023/02/10 07:45:12;;;;;;;5.13;2.00;;;;;;;16.70;47.05;103656.53;6276191;22;20003;-87
2023/02/10 07:47:37;;;;;;;5.38;2.17;;;;;;;16.70;46.92;103649.63;6277784;22;20003;-85
2023/02/10 07:50:03;;;;;;;4.13;2.17;;;;;;;16.72;47.02;103658.34;6305406;22;20059;-88
2023/02/10 07:52:29;;;;;;;3.85;1.80;;;;;;;16.71;47.12;103663.50;6279806;22;20007;-85
2023/02/10 07:54:55;;;;;;;4.00;2.10;;;;;;;16.70;46.87;103670.44;6279157;22;20007;-85
2023/02/10 07:57:21;;;;;;;4.88;2.25;;;;;;;16.72;47.08;103668.75;6280469;22;20004;-84
2023/02/10 07:59:46;;;;;;;3.42;1.80;;;;;;;16.73;46.79;103670.53;6275668;22;20027;-85
2023/02/10 08:02:12;;;;;;;3.67;1.90;;;;;;;16.73;46.88;103661.88;6249285;22;20014;-85
2023/02/10 08:04:38;;;;;;;5.13;1.60;;;;;;;16.83;46.88;103667.50;6301539;22;20061;-89
2023/02/10 08:10:25;;;;;;;3.70;1.88;;;;;;;17.14;45.91;103662.59;6329934;22;20062;-86
2023/02/10 08:12:54;;;;;;;4.50;2.13;;;;;;;17.18;45.83;103667.06;6245264;22;20003;-86
2023/02/10 08:15:22;;;;;;;7.07;2.22;;;;;;;17.26;45.78;103678.63;6295848;22;20308;-87
2023/02/10 08:17:47;;;;;;;6.03;2.30;;;;;;;17.31;45.67;103686.63;6268655;22;20071;-87
2023/02/10 08:20:21;;;;;;;4.13;2.05;;;;;;;17.33;45.67;103680.63;6264643;22;20014;-87
2023/02/10 08:22:54;;;;;;;3.78;2.20;;;;;;;17.35;45.58;103672.88;6293336;22;20014;-86
2023/02/10 08:25:19;;;;;;;6.40;2.15;;;;;;;17.36;45.80;103666.88;6267643;22;20007;-88
2023/02/10 08:27:45;;;;;;;8.50;2.08;;;;;;;17.40;45.60;103664.44;6266239;22;20003;-87
2023/02/10 08:30:11;;;;;;;3.85;1.90;;;;;;;17.46;45.66;103663.75;6264275;22;20073;-88
2023/02/10 08:32:37;;;;;;;4.53;1.92;;;;;;;17.54;45.36;103662.31;6259782;22;20503;-87
2023/02/10 08:35:03;;;;;;;3.92;1.92;;;;;;;17.65;45.26;103673.09;6260503;22;20419;-91
2023/02/10 08:37:28;;;;;;;5.00;2.13;;;;;;;17.71;44.87;103670.72;6258518;22;20003;-88
2023/02/10 08:39:54;;;;;;;5.78;2.10;;;;;;;17.81;44.72;103684.94;6283843;22;20011;-88
2023/02/10 08:42:19;;;;;;;7.85;1.90;;;;;;;17.87;44.80;103682.59;6258347;22;20011;-88
2023/02/10 08:44:45;;;;;;;3.50;1.90;;;;;;;17.89;44.74;103687.00;6284001;22;20008;-88
2023/02/10 08:47:14;;;;;;;5.10;2.15;;;;;;;17.91;44.49;103680.97;6283648;22;20011;-89
2023/02/10 08:49:39;;;;;;;4.47;1.80;;;;;;;17.92;44.42;103675.84;6283751;22;20035;-88
2023/02/10 08:52:05;;;;;;;3.78;2.00;;;;;;;17.91;44.59;103678.38;6258205;22;20316;-88
2023/02/10 08:54:30;;;;;;;3.65;1.80;;;;;;;17.92;44.48;103678.44;6232982;22;20011;-87
2023/02/10 08:56:56;;;;;;;3.13;1.80;;;;;;;17.93;44.57;103676.72;6232451;22;20389;-88
2023/02/10 08:59:22;;;;;;;4.97;1.73;;;;;;;17.92;44.62;103673.22;6257602;22;20088;-88
2023/02/10 09:01:47;;;;;;;4.78;2.00;;;;;;;17.93;44.63;103682.78;6283717;22;20313;-89
2023/02/10 09:04:13;;;;;;;3.08;1.70;;;;;;;17.95;44.58;103680.25;6310425;22;20010;-89
2023/02/10 09:06:42;;;;;;;3.97;1.98;;;;;;;17.96;44.32;103671.59;6232424;22;20368;-89
2023/02/10 09:09:08;;;;;;;3.15;1.90;;;;;;;17.98;44.43;103670.81;6283169;22;20003;-86
2023/02/10 09:11:34;;;;;;;3.63;1.75;;;;;;;18.00;44.47;103674.34;6258115;22;20038;-87
2023/02/10 09:14:00;;;;;;;5.22;2.08;;;;;;;17.99;44.50;103677.81;6282543;22;20423;-82
2023/02/10 09:16:25;;;;;;;3.45;1.80;;;;;;;17.96;44.51;103682.00;6256829;22;20003;-83
2023/02/10 09:18:51;;;;;;;3.13;1.60;;;;;;;17.85;44.79;103682.53;6256949;22;20065;-81
2023/02/10 09:21:17;;;;;;;4.47;1.88;;;;;;;17.81;44.92;103683.25;6231518;22;20007;-81
2023/02/10 09:23:43;;;;;;;3.40;1.50;;;;;;;17.80;44.84;103685.78;6282754;22;20007;-80
2023/02/10 09:26:08;;;;;;;3.72;1.70;;;;;;;17.83;45.07;103678.09;6282000;22;20080;-81
2023/02/10 09:28:34;;;;;;;2.35;1.48;;;;;;;17.82;44.83;103673.72;6309734;22;20297;-82
2023/02/10 09:31:00;;;;;;;2.70;1.60;;;;;;;17.82;44.87;103678.94;6257091;22;19999;-82
2023/02/10 09:33:25;;;;;;;3.80;1.90;;;;;;;17.84;45.05;103687.69;6282567;22;20004;-82
2023/02/10 09:35:54;;;;;;;3.50;1.75;;;;;;;17.83;44.96;103680.69;6281765;22;20003;-81
2023/02/10 09:38:19;;;;;;;2.72;1.67;;;;;;;17.84;44.91;103683.38;6281700;22;20003;-81
2023/02/10 09:40:57;;;;;;;2.55;1.48;;;;;;;17.83;44.93;103683.31;6282371;22;20438;-81
2023/02/10 09:43:31;;;;;;;2.38;1.60;;;;;;;17.84;45.19;103688.56;6309655;22;20022;-80
2023/02/10 09:46:41;;;;;;;3.80;1.58;;;;;;;17.82;44.95;103682.44;6281949;22;20057;-80
2023/02/10 09:49:25;;;;;;;3.97;1.60;;;;;;;17.84;45.14;103674.69;6241337;22;20041;-85
2023/02/10 09:52:12;;;;;;;2.95;1.58;;;;;;;17.83;45.13;103676.41;6282684;22;20006;-86
2023/02/10 09:54:39;;;;;;;2.95;1.48;;;;;;;17.82;45.16;103674.63;6283810;22;20014;-87
2023/02/10 09:57:16;;;;;;;4.82;1.65;;;;;;;17.83;45.05;103676.41;6283329;22;20010;-87
2023/02/10 09:59:43;;;;;;;2.40;1.35;;;;;;;17.83;45.32;103668.59;6309943;22;20022;-86
2023/02/10 10:02:28;;;;;;;2.90;1.30;;;;;;;17.84;45.24;103656.44;6282522;22;20082;-86
2023/02/10 10:04:55;;;;;;;3.63;1.60;;;;;;;17.86;45.17;103655.66;6283021;22;20003;-85
2023/02/10 10:07:49;;;;;;;2.75;1.63;;;;;;;17.86;45.03;103666.06;6256687;22;20018;-85
2023/02/10 10:10:20;;;;;;;;;;;;;;;17.90;45.22;103667.06;6282994;22;20003;-82
2023/02/10 10:12:45;;;;;;;3.60;1.38;;;;;;;17.91;45.26;103667.94;6282190;22;19982;-89
2023/02/10 10:15:18;;;;;;;2.90;1.60;;;;;;;17.91;45.18;103666.22;6257496;22;20339;-86
2023/02/10 10:18:03;;;;;;;3.65;1.42;;;;;;;17.93;45.30;103666.28;6257212;22;20011;-86
2023/02/10 10:20:53;;;;;;;2.70;1.50;;;;;;;17.93;45.30;103671.50;6282920;22;20074;-86
2023/02/10 10:23:18;;;;;;;2.70;1.25;;;;;;;17.93;45.12;103664.56;6283215;22;20008;-86
2023/02/10 10:26:51;;;;;;;3.22;1.50;;;;;;;17.94;45.25;103661.09;6283226;22;20453;-87
2023/02/10 10:29:33;;;;;;;2.63;1.33;;;;;;;17.93;45.29;103667.16;6155799;23;20017;-86
2023/02/10 10:32:14;;;;;;;3.00;1.50;;;;;;;17.94;45.20;103666.31;6274298;22;20018;-86
2023/02/10 10:34:45;;;;;;;1.67;1.30;;;;;;;17.94;45.14;103679.34;6282141;22;20010;-87
2023/02/10 10:37:17;;;;;;;2.97;1.40;;;;;;;17.93;45.21;103685.41;6282604;22;20010;-86
2023/02/10 10:39:50;;;;;;;2.72;1.50;;;;;;;17.95;45.21;103688.94;6282862;22;20006;-87
2023/02/10 10:42:48;;;;;;;2.10;1.27;;;;;;;17.94;45.35;103692.38;6283046;22;20003;-88
2023/02/10 10:45:19;;;;;;;2.67;1.50;;;;;;;17.93;45.18;103694.94;6283478;22;20034;-86
2023/02/10 10:47:50;;;;;;;2.30;1.23;;;;;;;17.93;45.25;103681.91;6282264;22;20057;-86
2023/02/10 10:50:20;;;;;;;2.47;1.20;;;;;;;17.91;45.41;103676.66;6282690;22;20006;-86
2023/02/10 10:52:51;;;;;;;2.95;1.30;;;;;;;17.91;45.43;103670.56;6310073;22;19999;-86
2023/02/10 10:55:31;;;;;;;4.47;1.50;;;;;;;17.91;45.46;103676.66;6310226;22;20030;-86
2023/02/10 10:58:00;;;;;;;2.55;1.30;;;;;;;17.92;45.48;103686.25;6286075;22;20007;-86
2023/02/10 11:00:28;;;;;;;2.72;1.27;;;;;;;17.93;45.40;103677.59;6292773;22;20028;-87
2023/02/10 11:03:04;;;;;;;2.88;1.20;;;;;;;17.95;45.35;103673.31;6262680;22;20019;-86
2023/02/10 11:05:33;;;;;;;2.95;1.33;;;;;;;17.96;45.27;103668.97;6283072;22;20003;-87
2023/02/10 11:07:59;;;;;;;2.50;1.40;;;;;;;17.98;45.49;103657.78;6282353;22;20086;-87
2023/02/10 11:10:55;;;;;;;2.70;1.27;;;;;;;17.99;45.13;103656.09;6283656;22;20007;-86
2023/02/10 11:13:28;;;;;;;2.00;1.20;;;;;;;17.99;45.16;103643.94;6324764;22;20005;-86
2023/02/10 11:16:04;;;;;;;2.03;1.10;;;;;;;18.01;45.03;103641.38;6304334;22;20010;-83
2023/02/10 11:18:30;;;;;;;1.92;1.08;;;;;;;18.02;44.99;103637.94;6311411;22;20084;-86
2023/02/10 11:21:04;;;;;;;1.63;0.90;;;;;;;18.05;45.12;103640.63;6257189;22;20003;-86
2023/02/10 11:23:30;;;;;;;2.03;1.08;;;;;;;18.06;45.12;103642.41;6309617;22;20003;-86
2023/02/10 11:26:01;;;;;;;2.13;1.10;;;;;;;18.06;44.88;103635.47;6256814;22;20060;-86
2023/02/10 11:28:29;;;;;;;2.00;1.15;;;;;;;18.07;45.11;103632.03;6282331;22;20035;-85
2023/02/10 11:30:59;;;;;;;2.58;1.10;;;;;;;18.09;45.23;103638.19;6309253;22;20481;-85
2023/02/10 11:33:28;;;;;;;2.72;1.30;;;;;;;18.10;45.03;103631.25;6282107;22;19998;-86
2023/02/10 11:36:06;;;;;;;3.42;1.33;;;;;;;18.12;44.90;103632.19;6281504;22;19999;-86
2023/02/10 11:38:33;;;;;;;2.35;1.10;;;;;;;18.13;44.85;103631.34;6309130;22;20425;-86
2023/02/10 11:41:08;;;;;;;4.57;1.13;;;;;;;18.14;44.75;103625.31;6281692;22;20011;-87
2023/02/10 11:43:47;;;;;;;2.35;1.10;;;;;;;18.16;44.85;103635.75;6281441;22;20349;-87
2023/02/10 11:46:20;;;;;;;2.13;1.13;;;;;;;18.16;44.83;103630.56;6256147;22;20008;-88
2023/02/10 11:48:52;;;;;;;;;;;;;;;18.17;45.00;103634.94;6282060;22;20023;-86
2023/02/10 11:51:18;;;;;;;2.90;1.25;;;;;;;18.18;44.68;103623.66;6281891;22;19902;-86
2023/02/10 11:53:45;;;;;;;2.95;1.13;;;;;;;18.16;44.62;103626.25;6231218;22;20016;-87
2023/02/10 11:58:58;;;;;;;2.00;1.10;;;;;;;18.18;44.84;103635.00;6281516;22;20014;-87
2023/02/10 11:59:27;;;;;;;2.10;0.90;;;;;;;18.18;44.83;103627.19;6308722;22;20150;-87
2023/02/10 12:02:11;;;;;;;1.83;1.00;;;;;;;18.18;44.79;103644.53;6280486;22;20121;-87
2023/02/10 12:04:58;;;;;;;1.90;1.10;;;;;;;18.17;44.89;103656.69;6281421;22;20020;-87
2023/02/10 12:08:01;;;;;;;1.92;1.00;;;;;;;18.20;44.82;103659.38;6281304;22;20014;-86
2023/02/10 12:10:39;;;;;;;1.92;1.00;;;;;;;18.20;44.79;103654.16;6281587;22;19999;-88
2023/02/10 12:13:18;;;;;;;1.73;1.00;;;;;;;18.22;44.76;103651.59;6281564;22;20003;-87
2023/02/10 12:16:00;;;;;;;2.92;1.13;;;;;;;18.22;44.89;103655.09;6281438;22;20003;-88
2023/02/10 12:18:56;;;;;;;2.78;1.10;;;;;;;18.20;44.89;103646.34;6280987;22;20435;-86
2023/02/10 12:21:46;;;;;;;2.10;0.98;;;;;;;18.19;44.80;103644.56;6280967;22;20007;-85
2023/02/10 12:24:22;;;;;;;2.05;1.05;;;;;;;18.20;44.81;103641.13;6309103;22;20323;-87
2023/02/10 12:27:27;;;;;;;2.53;1.10;;;;;;;18.17;44.79;103633.22;6309480;22;20008;-87
2023/02/10 12:30:14;;;;;;;2.88;1.05;;;;;;;18.14;44.99;103627.91;6280729;22;20049;-88
2023/02/10 12:32:54;;;;;;;1.98;1.00;;;;;;;18.12;44.75;103629.59;6281584;22;20000;-88
2023/02/10 12:35:29;;;;;;;1.90;0.90;;;;;;;18.13;44.92;103622.66;6281588;22;20007;-87
2023/02/10 12:38:30;;;;;;;2.03;1.13;;;;;;;18.12;45.02;103623.47;6281464;22;20085;-87
2023/02/10 12:41:25;;;;;;;2.20;1.10;;;;;;;18.11;44.86;103614.78;6281242;22;20006;-88
2023/02/10 12:44:10;;;;;;;1.40;0.90;;;;;;;18.13;44.57;103604.41;6281786;22;20055;-87
2023/02/10 12:46:55;;;;;;;2.15;1.10;;;;;;;18.12;45.01;103598.31;6285542;22;20000;-85
2023/02/10 12:49:29;;;;;;;1.70;1.10;;;;;;;18.11;45.00;103591.31;6284910;22;20002;-87
2023/02/10 12:51:54;;;;;;;2.25;1.20;;;;;;;18.10;44.89;103579.13;6284171;22;20011;-87
2023/02/10 12:54:27;;;;;;;3.25;1.20;;;;;;;18.09;45.04;103579.97;6282874;22;20331;-88
2023/02/10 12:57:08;;;;;;;2.50;1.15;;;;;;;18.08;45.37;103565.16;6284095;22;20027;-90
2023/02/10 12:59:43;;;;;;;1.90;0.93;;;;;;;18.07;45.46;103568.59;6285028;22;20142;-87
2023/02/10 13:02:20;;;;;;;3.17;1.17;;;;;;;18.03;45.47;103557.22;6284278;22;20091;-88
2023/02/10 13:05:00;;;;;;;3.97;1.20;;;;;;;18.02;45.70;103560.63;6283801;22;20008;-87
2023/02/10 13:07:32;;;;;;;2.65;1.10;;;;;;;18.03;45.69;103559.81;6282678;22;20053;-87
2023/02/10 13:10:37;;;;;;;2.25;1.20;;;;;;;18.04;45.49;103558.09;6283788;22;20015;-87